createdAt,value
2022-12-22T00:02:23.063Z,0.08
2022-12-22T00:04:49.334Z,0.21
2022-12-22T00:07:15.630Z,0.16
2022-12-22T00:09:41.996Z,0.14
2022-12-22T00:12:08.433Z,0.14
2022-12-22T00:14:34.803Z,0.05
2022-12-22T00:17:01.245Z,0.00
2022-12-22T00:19:27.498Z,-0.03
2022-12-22T00:21:53.894Z,-0.06
2022-12-22T00:24:20.204Z,-0.09
2022-12-22T00:26:46.554Z,-0.12
2022-12-22T00:29:12.913Z,-0.04
2022-12-22T00:31:39.253Z,0.06
2022-12-22T00:34:05.590Z,-0.01
2022-12-22T00:36:31.953Z,-0.09
2022-12-22T00:38:58.348Z,-0.06
2022-12-22T00:41:24.710Z,-0.08
2022-12-22T00:43:51.038Z,-0.07
2022-12-22T00:46:17.449Z,-0.06
2022-12-22T00:48:44.099Z,-0.11
2022-12-22T00:51:10.443Z,-0.16
2022-12-22T00:53:36.803Z,-0.18
2022-12-22T00:56:03.187Z,-0.18
2022-12-22T00:58:29.507Z,-0.20
2022-12-22T01:00:55.886Z,-0.26
2022-12-22T01:03:22.309Z,-0.24
2022-12-22T01:05:48.595Z,-0.22
2022-12-22T01:08:14.956Z,-0.20
2022-12-22T01:10:41.336Z,-0.17
2022-12-22T01:13:07.650Z,-0.20
2022-12-22T01:15:34.083Z,-0.25
2022-12-22T01:18:00.437Z,-0.30
2022-12-22T01:20:26.837Z,-0.34
2022-12-22T01:22:53.197Z,-0.47
2022-12-22T01:25:19.544Z,-0.48
2022-12-22T01:27:45.865Z,-0.49
2022-12-22T01:30:12.227Z,-0.55
2022-12-22T01:32:38.579Z,-0.57
2022-12-22T01:35:04.978Z,-0.69
2022-12-22T01:37:31.364Z,-0.72
2022-12-22T01:39:57.700Z,-0.69
2022-12-22T01:42:24.237Z,-0.59
2022-12-22T01:44:50.580Z,-0.67
2022-12-22T01:47:16.959Z,-0.73
2022-12-22T01:49:43.361Z,-0.82
2022-12-22T01:52:09.600Z,-0.83
2022-12-22T01:54:35.971Z,-0.78
2022-12-22T01:57:02.288Z,-0.78
2022-12-22T01:59:28.670Z,-0.78
2022-12-22T02:01:55.074Z,-0.82
2022-12-22T02:04:21.351Z,-0.76
2022-12-22T02:06:47.666Z,-0.60
2022-12-22T02:09:14.028Z,-0.69
2022-12-22T02:11:40.465Z,-0.90
2022-12-22T02:14:06.846Z,-1.00
2022-12-22T02:16:33.216Z,-1.04
2022-12-22T02:18:59.661Z,-1.10
2022-12-22T02:21:25.949Z,-0.97
2022-12-22T02:23:52.358Z,-0.97
2022-12-22T02:26:19.015Z,-0.94
2022-12-22T02:28:45.506Z,-0.96
2022-12-22T02:31:11.925Z,-0.99
2022-12-22T02:33:38.241Z,-1.00
2022-12-22T02:36:04.592Z,-0.93
2022-12-22T02:38:30.970Z,-0.77
2022-12-22T02:40:57.320Z,-0.68
2022-12-22T02:43:23.692Z,-0.60
2022-12-22T02:45:50.006Z,-0.60
2022-12-22T02:48:16.389Z,-0.73
2022-12-22T02:50:42.797Z,-0.72
2022-12-22T02:53:09.175Z,-0.82
2022-12-22T02:55:35.570Z,-0.88
2022-12-22T02:58:01.949Z,-0.88
2022-12-22T03:00:28.409Z,-0.81
2022-12-22T03:02:54.919Z,-0.72
2022-12-22T03:05:21.122Z,-0.68
2022-12-22T03:07:47.459Z,-0.83
2022-12-22T03:10:13.817Z,-0.84
2022-12-22T03:12:40.211Z,-0.90
2022-12-22T03:15:06.624Z,-0.98
2022-12-22T03:17:33.008Z,-1.00
2022-12-22T03:19:59.352Z,-0.96
2022-12-22T03:22:25.686Z,-0.91
2022-12-22T03:24:52.001Z,-0.88
2022-12-22T03:27:18.340Z,-0.96
2022-12-22T03:29:44.657Z,-1.13
2022-12-22T03:32:11.036Z,-1.17
2022-12-22T03:34:37.363Z,-1.12
2022-12-22T03:37:03.748Z,-1.18
2022-12-22T03:39:30.058Z,-1.27
2022-12-22T03:41:56.438Z,-1.43
2022-12-22T03:44:22.761Z,-1.50
2022-12-22T03:46:49.227Z,-1.51
2022-12-22T03:49:15.427Z,-1.54
2022-12-22T03:51:41.798Z,-1.50
2022-12-22T03:54:08.142Z,-1.52
2022-12-22T03:56:34.515Z,-1.64
2022-12-22T03:59:00.879Z,-1.67
2022-12-22T04:01:27.359Z,-1.74
2022-12-22T04:03:53.553Z,-1.60
2022-12-22T04:06:19.904Z,-1.57
2022-12-22T04:08:46.261Z,-1.48
2022-12-22T04:11:12.602Z,-1.52
2022-12-22T04:13:38.946Z,-1.66
2022-12-22T04:16:05.343Z,-1.70
2022-12-22T04:18:31.635Z,-1.54
2022-12-22T04:20:58.019Z,-1.44
2022-12-22T04:23:24.366Z,-1.46
2022-12-22T04:25:50.709Z,-1.39
2022-12-22T04:28:17.068Z,-1.40
2022-12-22T04:30:43.364Z,-1.37
2022-12-22T04:33:09.721Z,-1.48
2022-12-22T04:35:36.132Z,-1.58
2022-12-22T04:38:02.450Z,-1.58
2022-12-22T04:40:28.811Z,-1.65
2022-12-22T04:42:55.141Z,-1.58
2022-12-22T04:45:21.515Z,-1.52
2022-12-22T04:47:47.951Z,-1.55
2022-12-22T04:50:14.325Z,-1.56
2022-12-22T04:52:40.715Z,-1.67
2022-12-22T04:55:07.048Z,-1.71
2022-12-22T04:57:40.048Z,-1.70
2022-12-22T04:59:59.719Z,-1.57
2022-12-22T05:02:26.186Z,-1.51
2022-12-22T05:04:52.375Z,-1.57
2022-12-22T05:07:18.774Z,-1.56
2022-12-22T05:09:45.141Z,-1.65
2022-12-22T05:12:11.483Z,-1.63
2022-12-22T05:14:37.818Z,-1.63
2022-12-22T05:17:04.206Z,-1.68
2022-12-22T05:19:31.046Z,-1.71
2022-12-22T05:21:56.904Z,-1.64
2022-12-22T05:24:23.250Z,-1.54
2022-12-22T05:26:49.631Z,-1.50
2022-12-22T05:29:15.979Z,-1.48
2022-12-22T05:31:47.108Z,-1.71
2022-12-22T05:34:08.681Z,-1.72
2022-12-22T05:36:35.104Z,-1.76
2022-12-22T05:39:01.413Z,-1.84
2022-12-22T05:41:27.751Z,-1.74
2022-12-22T05:43:54.151Z,-1.55
2022-12-22T05:46:20.594Z,-1.38
2022-12-22T05:48:46.867Z,-1.31
2022-12-22T05:51:13.211Z,-1.39
2022-12-22T05:53:39.589Z,-1.34
2022-12-22T05:56:05.943Z,-1.37
2022-12-22T05:58:32.299Z,-1.39
2022-12-22T06:00:58.670Z,-1.30
2022-12-22T06:03:25.174Z,-1.21
2022-12-22T06:05:51.389Z,-1.22
2022-12-22T06:08:17.733Z,-1.16
2022-12-22T06:10:44.085Z,-1.01
2022-12-22T06:13:10.441Z,-0.86
2022-12-22T06:15:36.842Z,-0.65
2022-12-22T06:18:03.179Z,-0.45
2022-12-22T06:20:29.523Z,-0.34
2022-12-22T06:22:55.910Z,-0.11
2022-12-22T06:25:22.285Z,0.18
2022-12-22T06:27:48.586Z,0.29
2022-12-22T06:30:14.928Z,0.62
2022-12-22T06:32:41.320Z,0.84
2022-12-22T06:35:07.784Z,1.13
2022-12-22T06:37:34.067Z,1.22
2022-12-22T06:40:00.421Z,1.21
2022-12-22T06:42:26.786Z,1.47
2022-12-22T06:44:53.173Z,1.81
2022-12-22T06:47:19.482Z,2.06
2022-12-22T06:49:45.841Z,2.20
2022-12-22T06:52:12.204Z,2.48
2022-12-22T06:54:38.579Z,2.42
2022-12-22T06:57:04.942Z,2.52
2022-12-22T06:59:31.430Z,2.54
2022-12-22T07:01:57.963Z,2.64
2022-12-22T07:04:24.143Z,2.82
2022-12-22T07:06:50.465Z,2.75
2022-12-22T07:09:16.827Z,2.62
2022-12-22T07:11:43.173Z,2.32
2022-12-22T07:14:09.635Z,2.12
2022-12-22T07:16:36.052Z,1.87
2022-12-22T07:19:02.361Z,1.83
2022-12-22T07:21:28.672Z,1.90
2022-12-22T07:23:55.054Z,2.06
2022-12-22T07:26:21.369Z,2.04
2022-12-22T07:28:47.753Z,2.04
2022-12-22T07:31:14.144Z,2.33
2022-12-22T07:33:40.443Z,2.09
2022-12-22T07:36:06.779Z,2.23
2022-12-22T07:38:35.568Z,2.38
2022-12-22T07:41:04.511Z,2.53
2022-12-22T07:43:25.783Z,2.26
2022-12-22T07:45:52.141Z,2.48
2022-12-22T07:48:18.506Z,2.73
2022-12-22T07:50:44.833Z,3.04
2022-12-22T07:53:11.158Z,3.18
2022-12-22T07:55:37.518Z,3.13
2022-12-22T07:58:03.824Z,3.53
2022-12-22T08:00:30.321Z,3.84
2022-12-22T08:02:56.926Z,4.00
2022-12-22T08:05:23.168Z,3.53
2022-12-22T08:07:49.503Z,3.70
2022-12-22T08:10:15.825Z,4.07
2022-12-22T08:12:42.235Z,4.36
2022-12-22T08:15:08.524Z,4.62
2022-12-22T08:17:34.917Z,5.06
2022-12-22T08:20:01.276Z,5.03
2022-12-22T08:22:27.613Z,5.52
2022-12-22T08:24:53.955Z,5.92
2022-12-22T08:27:25.970Z,5.88
2022-12-22T08:29:46.653Z,5.87
2022-12-22T08:32:13.072Z,5.94
2022-12-22T08:34:39.413Z,6.00
2022-12-22T08:37:05.815Z,6.32
2022-12-22T08:39:32.158Z,6.28
2022-12-22T08:41:58.499Z,6.65
2022-12-22T08:44:24.860Z,6.62
2022-12-22T08:46:51.313Z,6.32
2022-12-22T08:49:17.605Z,6.00
2022-12-22T08:51:43.944Z,5.63
2022-12-22T08:54:10.270Z,5.70
2022-12-22T08:56:36.675Z,5.98
2022-12-22T08:59:03.030Z,6.13
2022-12-22T09:01:29.507Z,6.22
2022-12-22T09:03:55.721Z,6.22
2022-12-22T09:06:26.967Z,6.63
2022-12-22T09:08:48.379Z,6.97
2022-12-22T09:11:14.763Z,6.33
2022-12-22T09:13:41.138Z,6.47
2022-12-22T09:16:07.554Z,6.97
2022-12-22T09:18:33.865Z,7.46
2022-12-22T09:21:00.203Z,7.42
2022-12-22T09:23:26.562Z,7.09
2022-12-22T09:25:52.932Z,7.25
2022-12-22T09:28:19.253Z,7.78
2022-12-22T09:30:45.595Z,8.01
2022-12-22T09:33:11.944Z,7.94
2022-12-22T09:35:38.266Z,7.98
2022-12-22T09:38:04.628Z,7.99
2022-12-22T09:40:31.010Z,8.10
2022-12-22T09:42:57.326Z,8.27
2022-12-22T09:45:23.707Z,8.32
2022-12-22T09:47:50.039Z,8.11
2022-12-22T09:50:16.365Z,8.50
2022-12-22T09:52:42.787Z,9.08
2022-12-22T09:55:09.136Z,9.12
2022-12-22T09:57:35.493Z,9.02
2022-12-22T10:00:01.872Z,9.06
2022-12-22T10:02:28.275Z,8.85
2022-12-22T10:04:54.617Z,9.06
2022-12-22T10:07:20.965Z,9.66
2022-12-22T10:09:50.753Z,9.81
2022-12-22T10:12:13.692Z,9.54
2022-12-22T10:14:40.088Z,9.03
2022-12-22T10:17:06.467Z,9.34
2022-12-22T10:19:32.742Z,9.17
2022-12-22T10:21:59.108Z,9.22
2022-12-22T10:24:25.444Z,9.16
2022-12-22T10:26:51.810Z,9.64
2022-12-22T10:29:18.162Z,10.32
2022-12-22T10:31:44.551Z,10.28
2022-12-22T10:34:10.872Z,10.46
2022-12-22T10:36:37.226Z,10.18
2022-12-22T10:39:03.570Z,10.51
2022-12-22T10:41:29.883Z,10.95
2022-12-22T10:43:56.313Z,11.02
2022-12-22T10:46:22.677Z,10.91
2022-12-22T10:48:48.977Z,10.80
2022-12-22T10:51:15.356Z,10.34
2022-12-22T10:53:41.676Z,10.86
2022-12-22T10:56:08.004Z,10.28
2022-12-22T10:58:34.359Z,10.18
2022-12-22T11:01:00.785Z,10.50
2022-12-22T11:03:27.127Z,10.96
2022-12-22T11:05:53.393Z,11.58
2022-12-22T11:08:19.776Z,11.81
2022-12-22T11:10:46.136Z,12.03
2022-12-22T11:13:12.516Z,11.96
2022-12-22T11:15:38.884Z,11.61
2022-12-22T11:18:05.233Z,11.34
2022-12-22T11:20:31.604Z,11.75
2022-12-22T11:22:57.966Z,11.77
2022-12-22T11:25:24.331Z,12.00
2022-12-22T11:27:50.741Z,11.60
2022-12-22T11:30:17.037Z,11.68
2022-12-22T11:32:43.382Z,11.92
2022-12-22T11:35:09.749Z,11.78
2022-12-22T11:37:36.137Z,11.83
2022-12-22T11:40:02.514Z,12.15
2022-12-22T11:42:28.834Z,11.89
2022-12-22T11:44:55.149Z,12.17
2022-12-22T11:47:21.591Z,12.25
2022-12-22T11:49:47.902Z,11.98
2022-12-22T11:52:14.259Z,11.65
2022-12-22T11:54:40.647Z,12.02
2022-12-22T11:57:06.990Z,12.07
2022-12-22T11:59:33.367Z,12.46
2022-12-22T12:01:59.804Z,12.69
2022-12-22T12:04:26.143Z,12.57
2022-12-22T12:06:52.459Z,12.51
2022-12-22T12:09:18.792Z,12.08
2022-12-22T12:11:45.179Z,12.38
2022-12-22T12:14:11.554Z,12.07
2022-12-22T12:16:38.005Z,12.14
2022-12-22T12:19:04.307Z,12.41
2022-12-22T12:21:30.732Z,12.53
2022-12-22T12:23:57.019Z,12.48
2022-12-22T12:26:23.451Z,12.54
2022-12-22T12:28:49.806Z,12.68
2022-12-22T12:31:19.040Z,12.86
2022-12-22T12:33:42.513Z,12.76
2022-12-22T12:36:08.897Z,12.99
2022-12-22T12:41:01.598Z,12.87
2022-12-22T12:43:27.950Z,13.03
2022-12-22T12:45:54.353Z,12.70
2022-12-22T12:48:20.679Z,12.48
2022-12-22T12:50:47.027Z,12.16
2022-12-22T12:53:13.376Z,12.08
2022-12-22T12:55:39.742Z,11.88
2022-12-22T12:58:06.133Z,11.77
2022-12-22T13:00:32.512Z,11.84
2022-12-22T13:02:58.909Z,12.05
2022-12-22T13:05:25.195Z,11.94
2022-12-22T13:07:51.549Z,11.63
2022-12-22T13:10:17.981Z,11.43
2022-12-22T13:12:44.328Z,11.51
2022-12-22T13:15:10.676Z,11.45
2022-12-22T13:17:37.095Z,11.31
2022-12-22T13:20:03.420Z,11.15
2022-12-22T13:22:29.774Z,10.92
2022-12-22T13:24:56.158Z,10.75
2022-12-22T13:27:22.502Z,10.61
2022-12-22T13:29:48.880Z,10.71
2022-12-22T13:32:15.226Z,10.75
2022-12-22T13:35:04.322Z,10.65
2022-12-22T13:37:07.967Z,10.48
2022-12-22T13:39:34.352Z,10.23
2022-12-22T13:42:00.800Z,10.09
2022-12-22T13:44:27.081Z,9.91
2022-12-22T13:46:53.485Z,9.73
2022-12-22T13:49:36.229Z,9.69
2022-12-22T13:51:46.166Z,9.67
2022-12-22T13:54:12.936Z,9.53
2022-12-22T13:56:38.867Z,9.17
2022-12-22T13:59:05.199Z,8.92
2022-12-22T14:01:31.578Z,8.86
2022-12-22T14:04:01.514Z,8.78
2022-12-22T14:06:24.205Z,8.79
2022-12-22T14:08:50.578Z,8.89
2022-12-22T14:11:17.012Z,8.79
2022-12-22T14:13:43.343Z,8.66
2022-12-22T14:16:09.707Z,8.70
2022-12-22T14:18:36.006Z,8.66
2022-12-22T14:21:02.395Z,8.63
2022-12-22T14:23:28.764Z,8.52
2022-12-22T14:25:55.099Z,8.43
2022-12-22T14:28:21.483Z,8.36
2022-12-22T14:30:47.879Z,8.25
2022-12-22T14:33:14.239Z,8.15
2022-12-22T14:35:40.586Z,8.02
2022-12-22T14:38:06.967Z,7.91
2022-12-22T14:40:33.276Z,7.78
2022-12-22T14:42:59.622Z,7.68
2022-12-22T14:45:25.946Z,7.56
2022-12-22T14:47:52.279Z,7.57
2022-12-22T14:50:18.609Z,7.50
2022-12-22T14:52:45.004Z,7.43
2022-12-22T14:55:11.402Z,7.41
2022-12-22T14:57:37.722Z,7.38
2022-12-22T15:00:04.081Z,7.36
2022-12-22T15:02:35.136Z,7.31
2022-12-22T15:04:56.776Z,7.28
2022-12-22T15:08:04.063Z,7.25
2022-12-22T15:10:15.248Z,7.19
2022-12-22T15:12:15.872Z,7.13
2022-12-22T15:14:42.198Z,7.06
2022-12-22T15:17:08.552Z,7.01
2022-12-22T15:19:34.940Z,6.98
2022-12-22T15:22:01.260Z,6.94
2022-12-22T15:24:27.618Z,6.91
2022-12-22T15:26:53.949Z,6.85
2022-12-22T15:29:20.431Z,6.73
2022-12-22T15:31:46.739Z,6.66
2022-12-22T15:34:13.107Z,6.61
2022-12-22T15:36:39.481Z,6.57
2022-12-22T15:39:05.855Z,6.39
2022-12-22T15:41:32.179Z,6.32
2022-12-22T15:43:59.304Z,6.28
2022-12-22T15:46:24.986Z,6.22
2022-12-22T15:48:51.217Z,6.13
2022-12-22T15:51:17.601Z,6.10
2022-12-22T15:53:44.022Z,6.08
2022-12-22T15:56:17.048Z,6.00
2022-12-22T15:58:36.675Z,5.89
2022-12-22T16:01:03.171Z,5.83
2022-12-22T16:03:29.458Z,5.79
2022-12-22T16:05:55.784Z,5.81
2022-12-22T16:08:22.163Z,5.77
2022-12-22T16:10:48.484Z,5.75
2022-12-22T16:13:14.855Z,5.69
2022-12-22T16:15:41.434Z,5.62
2022-12-22T16:18:08.321Z,5.58
2022-12-22T16:20:37.826Z,5.53
2022-12-22T16:23:01.198Z,5.50
2022-12-22T16:25:27.560Z,5.46
2022-12-22T16:27:53.884Z,5.38
2022-12-22T16:30:20.237Z,5.34
2022-12-22T16:32:46.625Z,5.22
2022-12-22T16:35:12.984Z,5.22
2022-12-22T16:37:39.371Z,5.24
2022-12-22T16:40:05.738Z,5.18
2022-12-22T16:45:16.108Z,5.20
2022-12-22T16:47:42.489Z,5.26
2022-12-22T16:50:08.818Z,5.29
2022-12-22T16:52:35.198Z,5.25
2022-12-22T16:55:01.540Z,5.18
2022-12-22T16:57:27.918Z,5.15
2022-12-22T16:59:54.231Z,5.10
2022-12-22T17:02:20.744Z,5.08
2022-12-22T17:04:46.949Z,5.05
2022-12-22T17:07:13.342Z,5.03
2022-12-22T17:09:39.663Z,4.98
2022-12-22T17:12:06.074Z,5.00
2022-12-22T17:14:32.453Z,4.99
2022-12-22T17:16:59.657Z,4.92
2022-12-22T17:19:25.976Z,4.94
2022-12-22T17:21:52.365Z,4.95
2022-12-22T17:24:22.858Z,4.83
2022-12-22T17:26:45.041Z,4.74
2022-12-22T17:29:11.437Z,4.68
2022-12-22T17:31:37.924Z,4.49
2022-12-22T17:34:04.131Z,4.45
2022-12-22T17:36:30.551Z,4.38
2022-12-22T17:38:56.920Z,4.37
2022-12-22T17:41:23.738Z,4.27
2022-12-22T17:43:51.160Z,4.23
2022-12-22T17:46:17.586Z,4.14
2022-12-22T17:48:43.919Z,4.05
2022-12-22T17:51:10.248Z,3.99
2022-12-22T17:53:40.945Z,3.95
2022-12-22T17:56:08.140Z,4.04
2022-12-22T17:58:29.355Z,3.99
2022-12-22T18:00:55.713Z,3.87
2022-12-22T18:03:22.393Z,3.94
2022-12-22T18:05:48.461Z,3.94
2022-12-22T18:08:14.767Z,3.96
2022-12-22T18:10:41.113Z,3.84
2022-12-22T18:13:07.427Z,3.79
2022-12-22T18:15:33.787Z,3.78
2022-12-22T18:18:00.109Z,3.53
2022-12-22T18:20:26.481Z,3.48
2022-12-22T18:22:52.894Z,3.34
2022-12-22T18:25:19.220Z,3.42
2022-12-22T18:27:45.601Z,3.43
2022-12-22T18:30:11.994Z,3.36
2022-12-22T18:32:38.349Z,3.15
2022-12-22T18:35:04.741Z,3.15
2022-12-22T18:37:31.127Z,3.14
2022-12-22T18:39:57.525Z,3.13
2022-12-22T18:42:23.885Z,3.11
2022-12-22T18:44:50.249Z,3.02
2022-12-22T18:47:16.667Z,2.87
2022-12-22T18:49:43.017Z,3.02
2022-12-22T18:52:09.286Z,3.04
2022-12-22T18:54:35.662Z,3.17
2022-12-22T18:57:01.987Z,3.25
2022-12-22T18:59:28.337Z,3.31
2022-12-22T19:01:54.853Z,3.33
2022-12-22T19:04:21.019Z,3.47
2022-12-22T19:06:47.429Z,3.34
2022-12-22T19:09:13.761Z,3.20
2022-12-22T19:11:40.141Z,3.30
2022-12-22T19:14:06.482Z,3.46
2022-12-22T19:16:32.895Z,3.53
2022-12-22T19:18:59.232Z,3.51
2022-12-22T19:21:25.545Z,3.35
2022-12-22T19:23:52.155Z,3.25
2022-12-22T19:26:18.489Z,3.25
2022-12-22T19:28:44.826Z,3.20
2022-12-22T19:31:11.304Z,3.17
2022-12-22T19:33:37.562Z,3.13
2022-12-22T19:36:03.878Z,3.01
2022-12-22T19:38:30.290Z,2.97
2022-12-22T19:40:56.631Z,2.91
2022-12-22T19:43:22.976Z,2.92
2022-12-22T19:45:49.307Z,2.81
2022-12-22T19:48:15.627Z,2.80
2022-12-22T19:50:41.986Z,2.83
2022-12-22T19:53:08.356Z,2.69
2022-12-22T19:55:34.679Z,2.68
2022-12-22T19:58:01.063Z,2.66
2022-12-22T20:00:27.496Z,2.69
2022-12-22T20:02:53.886Z,2.67
2022-12-22T20:05:20.068Z,2.69
2022-12-22T20:07:46.453Z,2.57
2022-12-22T20:10:12.805Z,2.55
2022-12-22T20:12:39.201Z,2.49
2022-12-22T20:15:05.568Z,2.42
2022-12-22T20:17:31.923Z,2.43
2022-12-22T20:19:58.414Z,2.31
2022-12-22T20:22:24.659Z,2.22
2022-12-22T20:24:51.018Z,2.17
2022-12-22T20:27:17.338Z,2.14
2022-12-22T20:29:43.699Z,2.22
2022-12-22T20:32:10.101Z,2.33
2022-12-22T20:34:36.377Z,2.22
2022-12-22T20:37:02.717Z,2.17
2022-12-22T20:39:29.079Z,2.21
2022-12-22T20:41:55.412Z,2.36
2022-12-22T20:44:21.776Z,2.50
2022-12-22T20:46:48.153Z,2.69
2022-12-22T20:49:14.497Z,2.77
2022-12-22T20:51:40.901Z,2.86
2022-12-22T20:54:07.213Z,2.94
2022-12-22T20:56:33.593Z,2.99
2022-12-22T20:58:59.966Z,3.00
2022-12-22T21:01:26.452Z,2.90
2022-12-22T21:03:52.813Z,2.80
2022-12-22T21:06:19.050Z,2.76
2022-12-22T21:08:45.397Z,2.82
2022-12-22T21:11:11.763Z,2.87
2022-12-22T21:13:38.121Z,2.71
2022-12-22T21:16:04.529Z,2.66
2022-12-22T21:18:31.019Z,2.68
2022-12-22T21:20:57.443Z,2.73
2022-12-22T21:23:23.793Z,2.74
2022-12-22T21:25:50.171Z,2.65
2022-12-22T21:28:16.664Z,2.61
2022-12-22T21:30:43.048Z,2.43
2022-12-22T21:33:09.334Z,2.42
2022-12-22T21:35:35.700Z,2.42
2022-12-22T21:38:02.078Z,2.34
2022-12-22T21:40:28.426Z,2.32
2022-12-22T21:42:54.772Z,2.34
2022-12-22T21:45:21.107Z,2.40
2022-12-22T21:47:47.468Z,2.41
2022-12-22T21:50:13.841Z,2.38
2022-12-22T21:52:40.206Z,2.42
2022-12-22T21:55:06.596Z,2.44
2022-12-22T21:57:32.904Z,2.48
2022-12-22T21:59:59.241Z,2.52
2022-12-22T22:02:25.745Z,2.54
2022-12-22T22:04:54.984Z,2.50
2022-12-22T22:07:18.370Z,2.38
2022-12-22T22:09:44.763Z,2.26
2022-12-22T22:12:11.074Z,2.29
2022-12-22T22:14:37.467Z,2.23
2022-12-22T22:17:03.819Z,2.31
2022-12-22T22:19:30.158Z,2.36
2022-12-22T22:21:56.480Z,2.36
2022-12-22T22:24:22.918Z,2.26
2022-12-22T22:26:49.296Z,2.20
2022-12-22T22:29:15.598Z,2.27
2022-12-22T22:31:41.997Z,2.26
2022-12-22T22:34:08.281Z,2.35
2022-12-22T22:36:34.605Z,2.40
2022-12-22T22:39:01.015Z,2.42
2022-12-22T22:41:27.340Z,2.32
2022-12-22T22:43:53.713Z,2.17
2022-12-22T22:46:20.115Z,2.04
2022-12-22T22:48:46.426Z,2.06
2022-12-22T22:51:12.790Z,2.23
2022-12-22T22:53:39.179Z,2.15
2022-12-22T22:56:05.494Z,2.01
2022-12-22T22:58:31.879Z,2.08
2022-12-22T23:00:58.231Z,1.90
2022-12-22T23:03:24.737Z,1.89
2022-12-22T23:05:50.966Z,1.89
2022-12-22T23:08:17.345Z,1.84
2022-12-22T23:10:43.702Z,1.79
2022-12-22T23:13:10.127Z,1.77
2022-12-22T23:15:36.390Z,1.80
2022-12-22T23:18:02.767Z,1.86
2022-12-22T23:20:29.186Z,1.92
2022-12-22T23:22:55.544Z,2.00
2022-12-22T23:25:21.930Z,2.05
2022-12-22T23:27:48.265Z,2.09
2022-12-22T23:30:14.589Z,2.09
2022-12-22T23:32:40.952Z,2.09
2022-12-22T23:35:07.326Z,2.09
2022-12-22T23:37:33.666Z,2.16
2022-12-22T23:40:25.145Z,2.19
2022-12-22T23:42:26.383Z,2.12
2022-12-22T23:44:52.743Z,2.04
2022-12-22T23:47:19.100Z,2.03
2022-12-22T23:49:45.459Z,2.03
2022-12-22T23:52:11.811Z,2.01
2022-12-22T23:54:38.155Z,1.92
2022-12-22T23:57:04.487Z,1.87
2022-12-22T23:59:30.857Z,1.87
